createdAt,value
2016-03-20T00:00:55.214Z,7.1
2016-03-20T00:01:55.232Z,6.99
2016-03-20T00:02:55.235Z,7
2016-03-20T00:03:55.253Z,6.93
2016-03-20T00:04:55.272Z,6.95
2016-03-20T00:05:55.274Z,6.99
2016-03-20T00:06:55.136Z,7.05
2016-03-20T00:07:55.310Z,7.05
2016-03-20T00:08:55.313Z,7.02
2016-03-20T00:09:55.331Z,7.07
2016-03-20T00:10:55.334Z,7.03
2016-03-20T00:11:55.352Z,7.03
2016-03-20T00:12:55.355Z,7.06
2016-03-20T00:13:55.357Z,7.13
2016-03-20T00:14:55.377Z,6.97
2016-03-20T00:15:55.394Z,7.05
2016-03-20T00:16:55.397Z,7.03
2016-03-20T00:17:55.415Z,7.02
2016-03-20T00:18:55.435Z,7.05
2016-03-20T00:19:55.437Z,7.05
2016-03-20T00:20:55.455Z,7
2016-03-20T00:21:55.457Z,6.95
2016-03-20T00:22:55.460Z,6.97
2016-03-20T00:23:55.478Z,7.02
2016-03-20T00:24:55.512Z,6.92
2016-03-20T00:25:55.546Z,6.96
2016-03-20T00:26:55.502Z,6.95
2016-03-20T00:27:55.536Z,6.88
2016-03-20T00:28:55.554Z,6.87
2016-03-20T00:29:55.557Z,6.79
2016-03-20T00:30:55.575Z,6.87
2016-03-20T00:31:55.594Z,6.79
2016-03-20T00:32:55.612Z,6.79
2016-03-20T00:33:55.614Z,6.84
2016-03-20T00:34:55.633Z,6.74
2016-03-20T00:35:55.636Z,6.74
2016-03-20T00:36:55.639Z,6.75
2016-03-20T00:37:55.656Z,6.77
2016-03-20T00:38:55.675Z,6.85
2016-03-20T00:39:55.694Z,6.74
2016-03-20T00:40:55.681Z,6.79
2016-03-20T00:41:55.683Z,6.89
2016-03-20T00:42:55.717Z,6.81
2016-03-20T00:43:55.735Z,6.92
2016-03-20T00:44:55.754Z,6.81
2016-03-20T00:45:55.647Z,6.88
2016-03-20T00:46:55.759Z,6.93
2016-03-20T00:47:55.778Z,6.92
2016-03-20T00:48:55.796Z,6.97
2016-03-20T00:49:55.830Z,6.88
2016-03-20T00:50:55.816Z,6.85
2016-03-20T00:51:55.804Z,6.87
2016-03-20T00:52:55.837Z,6.88
2016-03-20T00:53:55.840Z,6.78
2016-03-20T00:54:55.874Z,6.75
2016-03-20T00:55:55.862Z,6.75
2016-03-20T00:56:55.879Z,6.81
2016-03-20T00:57:55.882Z,6.75
2016-03-20T00:58:55.901Z,6.87
2016-03-20T00:59:55.935Z,6.87
2016-03-20T01:00:55.828Z,6.93
2016-03-20T01:01:55.987Z,6.92
2016-03-20T01:02:55.974Z,6.79
2016-03-20T01:03:55.961Z,6.92
2016-03-20T01:04:55.979Z,6.92
2016-03-20T01:05:55.998Z,6.93
2016-03-20T01:06:56.017Z,6.82
2016-03-20T01:07:56.034Z,6.77
2016-03-20T01:08:56.021Z,6.89
2016-03-20T01:09:56.072Z,6.87
2016-03-20T01:10:56.058Z,6.78
2016-03-20T01:11:56.077Z,6.79
2016-03-20T01:12:56.079Z,6.75
2016-03-20T01:13:56.097Z,6.81
2016-03-20T01:14:55.960Z,6.84
2016-03-20T01:15:56.118Z,6.81
2016-03-20T01:16:56.136Z,6.75
2016-03-20T01:17:56.139Z,6.74
2016-03-20T01:18:56.158Z,6.66
2016-03-20T01:19:55.988Z,6.7
2016-03-20T01:20:56.163Z,6.59
2016-03-20T01:21:56.196Z,6.56
2016-03-20T01:22:56.246Z,6.6
2016-03-20T01:23:56.218Z,6.54
2016-03-20T01:24:56.237Z,6.51
2016-03-20T01:25:56.240Z,6.56
2016-03-20T01:26:56.257Z,6.52
2016-03-20T01:27:56.229Z,6.44
2016-03-20T01:28:56.263Z,6.48
2016-03-20T01:29:56.282Z,6.51
2016-03-20T01:30:56.299Z,6.52
2016-03-20T01:31:56.302Z,6.51
2016-03-20T01:32:56.321Z,6.49
2016-03-20T01:33:56.354Z,6.42
2016-03-20T01:34:56.341Z,6.39
2016-03-20T01:35:56.344Z,6.45
2016-03-20T01:36:56.378Z,6.44
2016-03-20T01:37:56.365Z,6.44
2016-03-20T01:38:56.383Z,6.46
2016-03-20T01:39:56.418Z,6.44
2016-03-20T01:40:56.405Z,6.45
2016-03-20T01:41:56.423Z,6.54
2016-03-20T01:42:56.425Z,6.57
2016-03-20T01:43:56.428Z,6.64
2016-03-20T01:44:56.430Z,6.59
2016-03-20T01:45:56.449Z,6.6
2016-03-20T01:46:56.483Z,6.52
2016-03-20T01:47:56.501Z,6.52
2016-03-20T01:48:56.488Z,6.57
2016-03-20T01:49:56.507Z,6.66
2016-03-20T01:50:56.510Z,6.63
2016-03-20T01:51:56.528Z,6.52
2016-03-20T01:52:56.562Z,6.52
2016-03-20T01:53:56.565Z,6.51
2016-03-20T01:54:56.568Z,6.63
2016-03-20T01:55:56.585Z,6.54
2016-03-20T01:56:56.650Z,6.54
2016-03-20T01:57:56.622Z,6.67
2016-03-20T01:58:56.624Z,6.56
2016-03-20T01:59:56.627Z,6.56
2016-03-20T02:00:56.661Z,6.62
2016-03-20T02:01:56.632Z,6.51
2016-03-20T02:02:56.667Z,6.56
2016-03-20T02:03:56.654Z,6.59
2016-03-20T02:04:56.704Z,6.6
2016-03-20T02:05:56.706Z,6.49
2016-03-20T02:06:56.708Z,6.44
2016-03-20T02:07:56.711Z,6.44
2016-03-20T02:08:56.714Z,6.45
2016-03-20T02:09:56.733Z,6.49
2016-03-20T02:10:56.767Z,6.49
2016-03-20T02:11:56.770Z,6.38
2016-03-20T02:12:56.787Z,6.35
2016-03-20T02:13:56.790Z,6.31
2016-03-20T02:14:56.792Z,6.33
2016-03-20T02:15:56.811Z,6.35
2016-03-20T02:16:56.814Z,6.38
2016-03-20T02:17:56.847Z,6.24
2016-03-20T02:18:56.835Z,6.22
2016-03-20T02:19:56.868Z,6.22
2016-03-20T02:20:56.871Z,6.26
2016-03-20T02:21:56.890Z,6.28
2016-03-20T02:22:56.908Z,6.36
2016-03-20T02:23:56.896Z,6.35
2016-03-20T02:24:56.913Z,6.36
2016-03-20T02:25:56.916Z,6.31
2016-03-20T02:26:56.935Z,6.3
2016-03-20T02:27:56.952Z,6.36
2016-03-20T02:28:56.987Z,6.33
2016-03-20T02:29:56.974Z,6.31
2016-03-20T02:30:56.976Z,6.38
2016-03-20T02:31:57.010Z,6.26
2016-03-20T02:32:56.982Z,6.26
2016-03-20T02:33:57.031Z,6.28
2016-03-20T02:34:57.018Z,6.26
2016-03-20T02:35:57.021Z,6.24
2016-03-20T02:36:57.040Z,6.11
2016-03-20T02:37:57.073Z,6.09
2016-03-20T02:38:57.076Z,6.14
2016-03-20T02:39:57.079Z,6.27
2016-03-20T02:40:57.097Z,6.26
2016-03-20T02:41:57.100Z,6.3
2016-03-20T02:42:57.117Z,6.22
2016-03-20T02:43:57.105Z,6.28
2016-03-20T02:44:57.139Z,6.16
2016-03-20T02:45:57.157Z,6.11
2016-03-20T02:46:57.145Z,6.01
2016-03-20T02:47:57.163Z,6.07
2016-03-20T02:48:57.166Z,6.09
2016-03-20T02:49:57.183Z,6.09
2016-03-20T02:50:57.202Z,6.02
2016-03-20T02:51:57.205Z,6.07
2016-03-20T02:52:57.207Z,6.11
2016-03-20T02:53:57.226Z,5.99
2016-03-20T02:54:57.244Z,6.07
2016-03-20T02:55:57.263Z,6.11
2016-03-20T02:56:57.265Z,6.04
2016-03-20T02:57:57.268Z,6.07
2016-03-20T02:58:57.285Z,6.07
2016-03-20T02:59:57.305Z,6.08
2016-03-20T03:00:57.307Z,6.14
2016-03-20T03:01:57.325Z,6.07
2016-03-20T03:02:57.891Z,6.05
2016-03-20T03:03:57.331Z,6.09
2016-03-20T03:04:57.349Z,6.2
2016-03-20T03:05:57.367Z,6.07
2016-03-20T03:06:57.377Z,6.05
2016-03-20T03:07:57.395Z,6.12
2016-03-20T03:08:57.414Z,6.17
2016-03-20T03:09:57.400Z,6.08
2016-03-20T03:10:57.263Z,6.12
2016-03-20T03:11:57.438Z,6.08
2016-03-20T03:12:57.440Z,6.12
2016-03-20T03:13:57.458Z,6.12
2016-03-20T03:14:57.477Z,6.19
2016-03-20T03:15:57.510Z,6.09
2016-03-20T03:16:57.497Z,6.16
2016-03-20T03:17:57.500Z,6.11
2016-03-20T03:18:57.502Z,6.24
2016-03-20T03:19:57.521Z,6.26
2016-03-20T03:20:57.555Z,6.27
2016-03-20T03:21:57.542Z,6.22
2016-03-20T03:22:57.576Z,6.26
2016-03-20T03:23:57.563Z,6.27
2016-03-20T03:24:57.565Z,6.28
2016-03-20T03:25:57.601Z,6.31
2016-03-20T03:26:57.603Z,6.28
2016-03-20T03:27:57.606Z,6.28
2016-03-20T03:28:57.623Z,6.33
2016-03-20T03:29:57.642Z,6.35
2016-03-20T03:30:57.644Z,6.28
2016-03-20T03:31:57.663Z,6.3
2016-03-20T03:32:57.665Z,6.31
2016-03-20T03:33:57.700Z,6.3
2016-03-20T03:34:57.686Z,6.14
2016-03-20T03:35:57.689Z,6.14
2016-03-20T03:36:57.723Z,6.11
2016-03-20T03:37:57.726Z,6.2
2016-03-20T03:38:57.744Z,6.24
2016-03-20T03:39:57.762Z,6.22
2016-03-20T03:40:57.766Z,6.19
2016-03-20T03:41:57.783Z,6.22
2016-03-20T03:42:57.786Z,6.22
2016-03-20T03:43:57.804Z,6.16
2016-03-20T03:44:57.807Z,6.12
2016-03-20T03:45:57.825Z,6.09
2016-03-20T03:46:57.828Z,6.09
2016-03-20T03:47:57.846Z,6.05
2016-03-20T03:48:57.849Z,6.11
2016-03-20T03:49:57.868Z,6.14
2016-03-20T03:50:57.870Z,6.19
2016-03-20T03:51:57.921Z,6.19
2016-03-20T03:52:57.907Z,6.14
2016-03-20T03:53:57.910Z,6.19
2016-03-20T03:54:57.928Z,6.16
2016-03-20T03:55:57.931Z,6.24
2016-03-20T03:56:57.965Z,6.16
2016-03-20T03:57:57.967Z,6.2
2016-03-20T03:58:57.985Z,6.19
2016-03-20T03:59:57.987Z,6.19
2016-03-20T04:00:57.976Z,6.11
2016-03-20T04:01:57.837Z,6.14
2016-03-20T04:02:58.033Z,6.19
2016-03-20T04:03:58.019Z,6.12
2016-03-20T04:04:58.038Z,6.07
2016-03-20T04:05:58.041Z,6.2
2016-03-20T04:06:57.902Z,6.05
2016-03-20T04:07:58.077Z,6.04
2016-03-20T04:08:58.079Z,6.11
2016-03-20T04:09:58.082Z,6.14
2016-03-20T04:10:58.133Z,6.16
2016-03-20T04:11:58.104Z,6.09
2016-03-20T04:12:58.137Z,6.11
2016-03-20T04:13:58.125Z,6.12
2016-03-20T04:14:58.143Z,6.08
2016-03-20T04:15:58.145Z,6.16
2016-03-20T04:16:58.163Z,6.24
2016-03-20T04:17:58.182Z,6.16
2016-03-20T04:18:58.184Z,6.12
2016-03-20T04:19:58.219Z,6.26
2016-03-20T04:20:58.065Z,6.26
2016-03-20T04:21:58.208Z,6.27
2016-03-20T04:22:58.243Z,6.24
2016-03-20T04:23:58.245Z,6.24
2016-03-20T04:24:58.263Z,6.2
2016-03-20T04:25:58.267Z,6.28
2016-03-20T04:26:58.274Z,6.3
2016-03-20T04:27:58.280Z,6.24
2016-03-20T04:28:58.270Z,6.28
2016-03-20T04:29:58.260Z,6.24
2016-03-20T04:30:58.250Z,6.24
2016-03-20T04:31:58.261Z,6.17
2016-03-20T04:32:58.291Z,6.14
2016-03-20T04:33:58.305Z,6.11
2016-03-20T04:34:58.303Z,6.08
2016-03-20T04:35:58.286Z,6.12
2016-03-20T04:36:58.302Z,6.11
2016-03-20T04:37:58.319Z,6.09
2016-03-20T04:38:58.320Z,6.12
2016-03-20T04:39:58.337Z,6.17
2016-03-20T04:40:58.369Z,6.14
2016-03-20T04:41:58.371Z,6.07
2016-03-20T04:42:58.373Z,6.04
2016-03-20T04:43:58.375Z,6.08
2016-03-20T04:44:58.391Z,6.12
2016-03-20T04:45:58.409Z,6.12
2016-03-20T04:46:58.412Z,6.07
2016-03-20T04:47:58.431Z,6.09
2016-03-20T04:48:58.433Z,6.12
2016-03-20T04:49:58.436Z,6.08
2016-03-20T04:50:58.454Z,6.12
2016-03-20T04:51:58.456Z,6.17
2016-03-20T04:52:58.491Z,6.22
2016-03-20T04:53:58.478Z,6.27
2016-03-20T04:54:58.511Z,6.19
2016-03-20T04:55:58.531Z,6.22
2016-03-20T04:56:58.517Z,6.27
2016-03-20T04:57:58.535Z,6.2
2016-03-20T04:58:58.570Z,6.2
2016-03-20T04:59:58.556Z,6.19
2016-03-20T05:00:58.590Z,6.24
2016-03-20T05:01:58.578Z,6.14
2016-03-20T05:02:58.596Z,6.17
2016-03-20T05:03:58.599Z,6.27
2016-03-20T05:04:58.617Z,6.2
2016-03-20T05:05:58.635Z,6.2
2016-03-20T05:06:58.621Z,6.12
2016-03-20T05:07:58.657Z,6.08
2016-03-20T05:08:58.659Z,6.08
2016-03-20T05:09:58.754Z,6.09
2016-03-20T05:10:58.680Z,6.11
2016-03-20T05:11:58.682Z,6.05
2016-03-20T05:12:58.716Z,6.11
2016-03-20T05:13:58.735Z,6.12
2016-03-20T05:14:58.753Z,5.98
2016-03-20T05:15:58.756Z,6.09
2016-03-20T05:16:58.774Z,6.11
2016-03-20T05:17:58.761Z,6.07
2016-03-20T05:18:58.779Z,6.11
2016-03-20T05:19:58.782Z,6.05
2016-03-20T05:20:58.785Z,6.07
2016-03-20T05:21:58.819Z,6.09
2016-03-20T05:22:58.822Z,6.12
2016-03-20T05:23:58.856Z,6.12
2016-03-20T05:24:58.842Z,6.16
2016-03-20T05:25:58.861Z,6.12
2016-03-20T05:26:58.878Z,6.12
2016-03-20T05:27:58.866Z,6.09
2016-03-20T05:28:58.899Z,6.14
2016-03-20T05:29:58.887Z,6.22
2016-03-20T05:30:58.905Z,6.26
2016-03-20T05:31:58.924Z,6.22
2016-03-20T05:32:58.927Z,6.27
2016-03-20T05:33:58.960Z,6.2
2016-03-20T05:34:58.947Z,6.22
2016-03-20T05:35:58.966Z,6.26
2016-03-20T05:36:58.843Z,6.27
2016-03-20T05:37:58.987Z,6.22
2016-03-20T05:38:59.005Z,6.16
2016-03-20T05:39:58.992Z,6.2
2016-03-20T05:40:59.027Z,6.2
2016-03-20T05:41:59.029Z,6.26
2016-03-20T05:42:59.031Z,6.17
2016-03-20T05:43:59.066Z,6.16
2016-03-20T05:44:59.068Z,6.27
2016-03-20T05:45:59.070Z,6.26
2016-03-20T05:46:59.120Z,6.26
2016-03-20T05:47:59.076Z,6.2
2016-03-20T05:48:59.110Z,6.26
2016-03-20T05:49:59.129Z,6.19
2016-03-20T05:50:59.131Z,6.26
2016-03-20T05:51:59.134Z,6.26
2016-03-20T05:52:59.153Z,6.2
2016-03-20T05:53:59.186Z,6.24
2016-03-20T05:54:59.172Z,6.22
2016-03-20T05:55:59.191Z,6.24
2016-03-20T05:56:59.194Z,6.31
2016-03-20T05:57:59.197Z,6.22
2016-03-20T05:58:59.247Z,6.17
2016-03-20T05:59:59.249Z,6.28
2016-03-20T06:00:59.236Z,6.22
2016-03-20T06:01:59.111Z,6.22
2016-03-20T06:02:59.257Z,6.28
2016-03-20T06:03:59.291Z,6.24
2016-03-20T06:04:59.277Z,6.28
2016-03-20T06:05:59.313Z,6.27
2016-03-20T06:06:59.315Z,6.19
2016-03-20T06:07:59.318Z,6.3
2016-03-20T06:08:59.336Z,6.2
2016-03-20T06:09:59.354Z,6.22
2016-03-20T06:10:59.341Z,6.24
2016-03-20T06:11:59.374Z,6.17
2016-03-20T06:12:59.393Z,6.28
2016-03-20T06:13:59.395Z,6.24
2016-03-20T06:14:59.805Z,6.27
2016-03-20T06:15:59.417Z,6.16
2016-03-20T06:16:59.435Z,6.26
2016-03-20T06:17:59.438Z,6.19
2016-03-20T06:18:59.472Z,6.24
2016-03-20T06:19:59.443Z,6.2
2016-03-20T06:20:59.493Z,6.12
2016-03-20T06:21:59.511Z,6.19
2016-03-20T06:22:59.498Z,6.27
2016-03-20T06:23:59.500Z,6.22
2016-03-20T06:24:59.503Z,6.27
2016-03-20T06:25:59.522Z,6.26
2016-03-20T06:26:59.540Z,6.26
2016-03-20T06:27:59.542Z,6.16
2016-03-20T06:28:59.577Z,6.24
2016-03-20T06:29:59.564Z,6.19
2016-03-20T06:30:59.583Z,6.17
2016-03-20T06:31:59.617Z,6.19
2016-03-20T06:32:59.603Z,6.26
2016-03-20T06:33:59.622Z,6.24
2016-03-20T06:34:59.656Z,6.24
2016-03-20T06:35:59.641Z,6.2
2016-03-20T06:36:59.658Z,6.11
2016-03-20T06:37:59.660Z,6.22
2016-03-20T06:38:59.663Z,6.22
2016-03-20T06:39:59.682Z,6.09
2016-03-20T06:40:59.716Z,6.11
2016-03-20T06:41:59.734Z,6.14
2016-03-20T06:42:59.549Z,6.17
2016-03-20T06:43:59.708Z,6.22
2016-03-20T06:44:59.790Z,6.27
2016-03-20T06:45:59.745Z,6.26
2016-03-20T06:46:59.763Z,6.28
2016-03-20T06:47:59.782Z,6.26
2016-03-20T06:48:59.816Z,6.26
2016-03-20T06:49:59.818Z,6.26
2016-03-20T06:50:59.805Z,6.27
2016-03-20T06:51:59.809Z,6.26
2016-03-20T06:52:59.826Z,6.24
2016-03-20T06:53:59.845Z,6.26
2016-03-20T06:54:59.848Z,6.3
2016-03-20T06:55:59.897Z,6.28
2016-03-20T06:56:59.868Z,6.19
2016-03-20T06:57:59.887Z,6.2
2016-03-20T06:58:59.905Z,6.24
2016-03-20T06:59:59.908Z,6.26
2016-03-20T07:00:59.926Z,6.2
2016-03-20T07:01:59.944Z,6.24
2016-03-20T07:03:00.072Z,6.17
2016-03-20T07:03:59.966Z,6.16
2016-03-20T07:04:59.968Z,6.28
2016-03-20T07:05:59.986Z,6.26
2016-03-20T07:06:59.974Z,6.28
2016-03-20T07:07:59.991Z,6.26
2016-03-20T07:09:00.010Z,6.22
2016-03-20T07:10:00.013Z,6.27
2016-03-20T07:11:00.030Z,6.33
2016-03-20T07:12:00.034Z,6.28
2016-03-20T07:13:00.052Z,6.35
2016-03-20T07:13:59.914Z,6.38
2016-03-20T07:15:00.073Z,6.35
2016-03-20T07:16:00.091Z,6.38
2016-03-20T07:17:00.110Z,6.38
2016-03-20T07:18:00.096Z,6.26
2016-03-20T07:19:00.131Z,6.35
2016-03-20T07:20:00.117Z,6.35
2016-03-20T07:21:00.152Z,6.38
2016-03-20T07:22:00.357Z,6.2
2016-03-20T07:23:00.157Z,6.22
2016-03-20T07:24:00.206Z,6.27
2016-03-20T07:25:00.193Z,6.35
2016-03-20T07:26:00.228Z,6.35
2016-03-20T07:27:00.214Z,6.35
2016-03-20T07:28:00.217Z,6.31
2016-03-20T07:29:00.251Z,6.38
2016-03-20T07:30:00.253Z,6.41
2016-03-20T07:31:00.334Z,6.45
2016-03-20T07:32:00.291Z,6.44
2016-03-20T07:33:00.277Z,6.42
2016-03-20T07:34:00.312Z,6.44
2016-03-20T07:35:00.299Z,6.46
2016-03-20T07:36:00.316Z,6.46
2016-03-20T07:37:00.351Z,6.44
2016-03-20T07:38:00.356Z,6.49
2016-03-20T07:39:00.343Z,6.49
2016-03-20T07:40:00.347Z,6.49
2016-03-20T07:41:00.380Z,6.48
2016-03-20T07:42:00.382Z,6.51
2016-03-20T07:43:00.402Z,6.42
2016-03-20T07:44:00.404Z,6.51
2016-03-20T07:45:00.407Z,6.48
2016-03-20T07:46:00.425Z,6.51
2016-03-20T07:47:00.443Z,6.54
2016-03-20T07:48:00.446Z,6.46
2016-03-20T07:49:00.480Z,6.52
2016-03-20T07:50:00.466Z,6.46
2016-03-20T07:51:00.485Z,6.44
2016-03-20T07:52:00.535Z,6.45
2016-03-20T07:53:00.537Z,6.48
2016-03-20T07:54:00.510Z,6.46
2016-03-20T07:55:00.512Z,6.56
2016-03-20T07:56:00.545Z,6.52
2016-03-20T07:57:00.549Z,6.54
2016-03-20T07:58:00.598Z,6.56
2016-03-20T07:59:00.601Z,6.62
2016-03-20T08:00:00.618Z,6.57
2016-03-20T08:01:00.621Z,6.64
2016-03-20T08:02:00.639Z,6.66
2016-03-20T08:03:00.612Z,6.72
2016-03-20T08:04:00.645Z,6.7
2016-03-20T08:05:00.631Z,6.69
2016-03-20T08:06:00.682Z,6.79
2016-03-20T08:07:00.669Z,6.75
2016-03-20T08:08:00.672Z,6.78
2016-03-20T08:09:00.689Z,6.72
2016-03-20T08:10:00.692Z,6.75
2016-03-20T08:11:00.711Z,6.72
2016-03-20T08:12:00.729Z,6.85
2016-03-20T08:13:00.732Z,6.75
2016-03-20T08:14:00.750Z,6.67
2016-03-20T08:15:00.769Z,6.72
2016-03-20T08:16:00.786Z,6.78
2016-03-20T08:17:00.789Z,6.77
2016-03-20T08:18:00.807Z,6.7
2016-03-20T08:19:00.654Z,6.72
2016-03-20T08:20:00.813Z,6.69
2016-03-20T08:21:00.832Z,6.74
2016-03-20T08:22:00.834Z,6.79
2016-03-20T08:23:00.868Z,6.87
2016-03-20T08:24:00.871Z,6.78
2016-03-20T08:25:00.873Z,6.78
2016-03-20T08:26:00.892Z,6.88
2016-03-20T08:27:00.895Z,6.88
2016-03-20T08:28:00.897Z,6.93
2016-03-20T08:29:00.166Z,6.97
2016-03-20T08:30:00.934Z,6.96
2016-03-20T08:31:00.952Z,6.88
2016-03-20T08:32:00.954Z,6.88
2016-03-20T08:33:00.973Z,6.92
2016-03-20T08:34:00.992Z,6.95
2016-03-20T08:35:01.025Z,7.05
2016-03-20T08:36:01.028Z,7.06
2016-03-20T08:37:01.015Z,7.11
2016-03-20T08:38:01.050Z,7.11
2016-03-20T08:39:01.036Z,6.93
2016-03-20T08:40:01.055Z,7.03
2016-03-20T08:41:00.933Z,7.11
2016-03-20T08:42:01.106Z,7.15
2016-03-20T08:43:01.109Z,7.11
2016-03-20T08:44:01.096Z,7.11
2016-03-20T08:45:01.130Z,7.29
2016-03-20T08:46:01.117Z,7.24
2016-03-20T08:47:01.136Z,7.25
2016-03-20T08:48:01.154Z,7.33
2016-03-20T08:49:01.172Z,7.42
2016-03-20T08:50:01.160Z,7.43
2016-03-20T08:51:01.177Z,7.43
2016-03-20T08:52:01.180Z,7.39
2016-03-20T08:53:01.199Z,7.47
2016-03-20T08:54:01.107Z,7.48
2016-03-20T08:55:01.235Z,7.47
2016-03-20T08:56:01.285Z,7.57
2016-03-20T08:57:01.288Z,7.58
2016-03-20T08:58:01.274Z,7.58
2016-03-20T08:59:01.262Z,7.72
2016-03-20T09:00:01.296Z,7.75
2016-03-20T09:01:01.329Z,7.75
2016-03-20T09:02:01.317Z,7.79
2016-03-20T09:03:01.350Z,7.85
2016-03-20T09:04:01.448Z,7.73
2016-03-20T09:05:01.356Z,7.73
2016-03-20T09:06:01.374Z,7.67
2016-03-20T09:07:01.236Z,7.85
2016-03-20T09:08:01.380Z,7.9
2016-03-20T09:09:01.429Z,7.88
2016-03-20T09:10:01.416Z,7.79
2016-03-20T09:11:01.434Z,7.87
2016-03-20T09:12:01.453Z,7.95
2016-03-20T09:13:01.456Z,7.93
2016-03-20T09:14:01.505Z,8.03
2016-03-20T09:15:01.477Z,8.06
2016-03-20T09:16:01.495Z,8.05
2016-03-20T09:17:01.513Z,8.12
2016-03-20T09:18:01.516Z,8.13
2016-03-20T09:19:01.550Z,8.2
2016-03-20T09:20:01.552Z,8.26
2016-03-20T09:21:01.571Z,8.28
2016-03-20T09:22:01.558Z,8.28
2016-03-20T09:23:01.576Z,8.33
2016-03-20T09:24:01.610Z,8.33
2016-03-20T09:25:01.707Z,8.37
2016-03-20T09:26:01.631Z,8.38
2016-03-20T09:27:01.634Z,8.37
2016-03-20T09:28:01.652Z,8.41
2016-03-20T09:29:01.670Z,8.52
2016-03-20T09:30:01.658Z,8.49
2016-03-20T09:31:01.692Z,8.48
2016-03-20T09:32:01.709Z,8.56
2016-03-20T09:33:01.713Z,8.49
2016-03-20T09:34:01.731Z,8.55
2016-03-20T09:35:01.733Z,8.63
2016-03-20T09:36:01.751Z,8.67
2016-03-20T09:37:01.770Z,8.58
2016-03-20T09:38:01.789Z,8.6
2016-03-20T09:39:01.792Z,8.58
2016-03-20T09:40:01.794Z,8.61
2016-03-20T09:41:01.828Z,8.7
2016-03-20T09:42:01.847Z,8.6
2016-03-20T09:43:01.849Z,8.73
2016-03-20T09:44:01.851Z,8.73
2016-03-20T09:45:01.870Z,8.69
2016-03-20T09:46:01.982Z,8.67
2016-03-20T09:47:01.922Z,8.79
2016-03-20T09:48:01.956Z,8.84
2016-03-20T09:49:01.927Z,8.92
2016-03-20T09:50:01.930Z,9
2016-03-20T09:51:01.949Z,8.95
2016-03-20T09:52:01.967Z,9.22
2016-03-20T09:53:01.969Z,9.26
2016-03-20T09:54:01.988Z,9.29
2016-03-20T09:55:02.007Z,9.26
2016-03-20T09:56:02.009Z,9.36
2016-03-20T09:57:02.058Z,9.43
2016-03-20T09:58:02.046Z,9.47
2016-03-20T09:59:02.063Z,9.59
2016-03-20T10:00:02.098Z,9.69
2016-03-20T10:01:02.084Z,9.82
2016-03-20T10:02:02.150Z,9.83
2016-03-20T10:03:02.121Z,9.77
2016-03-20T10:04:02.124Z,9.79
2016-03-20T10:05:02.142Z,9.74
2016-03-20T10:06:02.161Z,9.82
2016-03-20T10:07:02.179Z,9.84
2016-03-20T10:08:02.197Z,9.92
2016-03-20T10:09:02.200Z,9.95
2016-03-20T10:10:02.217Z,10.04
2016-03-20T10:11:02.237Z,9.99
2016-03-20T10:12:02.239Z,10.15
2016-03-20T10:13:02.258Z,10.23
2016-03-20T10:14:02.276Z,10.25
2016-03-20T10:15:02.278Z,10.33
2016-03-20T10:16:02.328Z,10.3
2016-03-20T10:17:02.315Z,10.33
2016-03-20T10:18:02.333Z,10.44
2016-03-20T10:19:02.352Z,10.42
2016-03-20T10:20:02.354Z,10.53
2016-03-20T10:21:02.373Z,10.46
2016-03-20T10:22:02.391Z,10.6
2016-03-20T10:23:02.394Z,10.76
2016-03-20T10:24:02.413Z,10.72
2016-03-20T10:25:02.430Z,10.76
2016-03-20T10:26:02.465Z,10.68
2016-03-20T10:27:02.468Z,10.76
2016-03-20T10:28:02.470Z,10.89
2016-03-20T10:29:02.504Z,10.92
2016-03-20T10:30:02.554Z,11.07
2016-03-20T10:31:02.557Z,11.11
2016-03-20T10:32:02.543Z,10.99
2016-03-20T10:33:02.390Z,11.08
2016-03-20T10:34:02.565Z,11.04
2016-03-20T10:35:02.567Z,11.08
2016-03-20T10:36:02.601Z,11.11
2016-03-20T10:37:02.619Z,11.23
2016-03-20T10:38:02.482Z,11.26
2016-03-20T10:39:02.640Z,11.4
2016-03-20T10:40:02.658Z,11.47
2016-03-20T10:41:02.692Z,11.59
2016-03-20T10:42:02.695Z,11.55
2016-03-20T10:43:02.713Z,11.65
2016-03-20T10:44:02.731Z,11.68
2016-03-20T10:45:02.750Z,11.75
2016-03-20T10:46:02.753Z,11.83
2016-03-20T10:47:02.771Z,11.8
2016-03-20T10:48:02.805Z,11.73
2016-03-20T10:49:02.823Z,11.88
2016-03-20T10:50:02.825Z,11.86
2016-03-20T10:51:02.844Z,11.95
2016-03-20T10:52:02.910Z,12
2016-03-20T10:53:02.865Z,12.07
2016-03-20T10:54:02.712Z,12.28
2016-03-20T10:55:02.886Z,12.32
2016-03-20T10:56:02.904Z,12.47
2016-03-20T10:57:02.923Z,12.61
2016-03-20T10:58:02.957Z,12.68
2016-03-20T10:59:02.974Z,12.76
2016-03-20T11:00:02.977Z,12.78
2016-03-20T11:01:03.012Z,12.91
2016-03-20T11:02:03.030Z,13.01
2016-03-20T11:03:03.048Z,13.12
2016-03-20T11:04:03.051Z,13.15
2016-03-20T11:05:03.070Z,13.27
2016-03-20T11:06:03.087Z,13.27
2016-03-20T11:07:03.121Z,13.37
2016-03-20T11:08:03.108Z,13.59
2016-03-20T11:09:03.126Z,13.72
2016-03-20T11:10:03.146Z,13.7
2016-03-20T11:11:03.164Z,13.75
2016-03-20T11:12:03.166Z,13.79
2016-03-20T11:13:03.216Z,13.85
2016-03-20T11:14:03.250Z,13.81
2016-03-20T11:15:03.252Z,13.87
2016-03-20T11:16:03.255Z,13.97
2016-03-20T11:17:03.273Z,13.99
2016-03-20T11:18:03.308Z,14.11
2016-03-20T11:19:03.310Z,14.2
2016-03-20T11:20:03.328Z,14.29
2016-03-20T11:21:03.347Z,14.55
2016-03-20T11:22:03.396Z,14.55
2016-03-20T11:23:03.399Z,14.58
2016-03-20T11:24:03.402Z,14.58
2016-03-20T11:25:03.435Z,14.54
2016-03-20T11:26:03.423Z,14.51
2016-03-20T11:27:03.457Z,14.51
2016-03-20T11:28:03.460Z,14.81
2016-03-20T11:29:03.493Z,14.92
2016-03-20T11:30:03.512Z,14.96
2016-03-20T11:31:03.530Z,14.89
2016-03-20T11:32:03.548Z,15.02
2016-03-20T11:33:03.613Z,15.17
2016-03-20T11:34:03.585Z,15.09
2016-03-20T11:35:03.619Z,15.1
2016-03-20T11:36:03.668Z,15.29
2016-03-20T11:37:03.686Z,15.57
2016-03-20T11:38:03.690Z,15.82
2016-03-20T11:39:03.676Z,15.91
2016-03-20T11:40:03.709Z,15.94
2016-03-20T11:41:03.728Z,16.01
2016-03-20T11:42:03.747Z,16.08
2016-03-20T11:43:03.797Z,16.2
2016-03-20T11:44:03.768Z,16.35
2016-03-20T11:45:03.818Z,16.43
2016-03-20T11:46:03.851Z,16.54
2016-03-20T11:47:03.838Z,16.54
2016-03-20T11:48:03.872Z,16.53
2016-03-20T11:49:09.378Z,16.46
2016-03-20T11:50:03.925Z,16.57
2016-03-20T11:51:03.911Z,16.64
2016-03-20T11:52:03.961Z,16.65
2016-03-20T11:53:03.949Z,16.86
2016-03-20T11:54:03.966Z,17.12
2016-03-20T11:55:04.016Z,17.45
2016-03-20T11:56:04.018Z,17.59
2016-03-20T11:57:04.037Z,17.63
2016-03-20T11:58:04.087Z,17.59
2016-03-20T11:59:04.105Z,17.65
2016-03-20T12:00:04.108Z,17.67
2016-03-20T12:01:04.127Z,17.64
2016-03-20T12:02:03.988Z,17.7
2016-03-20T12:03:04.163Z,17.63
2016-03-20T12:04:04.182Z,17.68
2016-03-20T12:05:04.215Z,17.71
2016-03-20T12:06:04.233Z,17.72
2016-03-20T12:07:04.251Z,17.68
2016-03-20T12:08:04.285Z,17.86
2016-03-20T12:09:04.319Z,17.89
2016-03-20T12:10:04.354Z,18.03
2016-03-20T12:11:04.325Z,18.07
2016-03-20T12:12:04.359Z,18.18
2016-03-20T12:13:04.378Z,18.08
2016-03-20T12:14:04.412Z,17.94
2016-03-20T12:15:04.429Z,17.95
2016-03-20T12:16:04.447Z,17.95
2016-03-20T12:17:04.466Z,17.9
2016-03-20T12:18:04.484Z,18.1
2016-03-20T12:19:04.502Z,18.23
2016-03-20T12:20:04.536Z,18.35
2016-03-20T12:21:04.555Z,18.5
2016-03-20T12:22:04.620Z,18.5
2016-03-20T12:23:04.638Z,18.52
2016-03-20T12:24:04.610Z,18.59
2016-03-20T12:25:04.660Z,18.63
2016-03-20T12:26:04.677Z,18.68
2016-03-20T12:27:04.697Z,18.56
2016-03-20T12:28:04.746Z,18.71
2016-03-20T12:29:04.748Z,18.95
2016-03-20T12:30:04.767Z,19.07
2016-03-20T12:31:04.801Z,19.16
2016-03-20T12:32:04.787Z,19.15
2016-03-20T12:33:04.822Z,19.31
2016-03-20T12:34:04.840Z,19.41
2016-03-20T12:35:04.874Z,19.41
2016-03-20T12:36:04.893Z,19.22
2016-03-20T12:37:04.910Z,19.09
2016-03-20T12:38:04.991Z,18.92
2016-03-20T12:39:04.963Z,19.09
2016-03-20T12:40:04.981Z,19.19
2016-03-20T12:41:04.999Z,19.14
2016-03-20T12:42:05.034Z,19
2016-03-20T12:43:05.068Z,18.8
2016-03-20T12:44:05.070Z,18.81
2016-03-20T12:45:05.119Z,18.84
2016-03-20T12:46:05.122Z,18.75
2016-03-20T12:47:05.140Z,18.73
2016-03-20T12:48:05.175Z,18.77
2016-03-20T12:49:05.193Z,18.96
2016-03-20T12:50:05.227Z,19.12
2016-03-20T12:51:05.230Z,19.39
2016-03-20T12:52:05.264Z,19.51
2016-03-20T12:53:05.313Z,19.44
2016-03-20T12:54:05.300Z,19.37
2016-03-20T12:55:05.350Z,19.52
2016-03-20T12:56:05.336Z,19.58
2016-03-20T12:57:05.371Z,19.73
2016-03-20T12:58:05.404Z,19.7
2016-03-20T12:59:05.407Z,19.44
2016-03-20T13:00:05.472Z,19.18
2016-03-20T13:01:05.506Z,19.07
2016-03-20T13:02:05.477Z,18.92
2016-03-20T13:03:05.527Z,18.98
2016-03-20T13:04:05.530Z,19.02
2016-03-20T13:05:05.563Z,19.14
2016-03-20T13:06:05.566Z,19.31
2016-03-20T13:07:05.663Z,19.41
2016-03-20T13:08:05.634Z,19.59
2016-03-20T13:09:05.716Z,19.67
2016-03-20T13:10:05.687Z,19.73
2016-03-20T13:11:05.690Z,19.66
2016-03-20T13:12:05.723Z,19.41
2016-03-20T13:13:05.726Z,19.56
2016-03-20T13:14:05.776Z,19.73
2016-03-20T13:15:05.794Z,19.73